White Coral — 3FSL7 — position and weather

sailwx.info

Track history (hours):
 
Tides and Currents Weather Stations Pressure Air Temp Water Temp Dewpoint Dewpoint Depression Visibility Wind Speed Wind Dir Waves Ship Positions

White Coral

Last reported at 2018-Feb-12 14:54 UTC. Time now 2018-Feb-21 19:21 UTC.
Position N 46°11' W 125°29'.
Warning: this ship's position is 9 days out of date.

Length 176 m; draft 10.2 m.

Type: Cargo ship. MMSI: 353769000.

Date/timePositionNaut miles runAvg speedWind from/ knotsBaromVisibWave heightAir tempDewpointWater temp
2018-Feb-12 14:54N 46°11' W 125°29'4 9.9
2018-Feb-12 14:30N 46°11' W 125°23'5 9.7
2018-Feb-12 14:00N 46°11' W 125°16'510.1
2018-Feb-12 13:30N 46°11' W 125°09'6 9.9
2018-Feb-12 12:57N 46°11' W 125°01'410.1
2018-Feb-12 12:30N 46°11' W 124°54'510.0
2018-Feb-12 12:00N 46°11' W 124°47'5 9.8
2018-Feb-12 11:30N 46°11' W 124°40'510.0
2018-Feb-12 11:00N 46°11' W 124°33'510.1
2018-Feb-12 10:30N 46°11' W 124°26'510.6
2018-Feb-12 10:00N 46°11' W 124°18'611.5
2018-Feb-12 09:30N 46°12' W 124°10'612.1
2018-Feb-12 09:00N 46°16' W 124°02'612.2
2018-Feb-12 08:30N 46°12' W 123°56'3 5.3
2018-Feb-12 08:01N 46°11' W 123°52'0 0.3
2018-Feb-12 07:25N 46°11' W 123°52'0 0.0
2018-Feb-12 06:58N 46°11' W 123°52'0 0.0
2018-Feb-12 06:28N 46°11' W 123°52'0 0.0
2018-Feb-12 05:46N 46°11' W 123°52'0 0.0
2018-Feb-12 05:28N 46°11' W 123°52'0 0.0
2018-Feb-12 04:58N 46°11' W 123°52'0 0.0
2018-Feb-12 04:28N 46°11' W 123°52'0 0.0
2018-Feb-12 03:58N 46°11' W 123°52'0 0.0
2018-Feb-12 03:19N 46°11' W 123°52'0 0.0
2018-Feb-12 02:58N 46°11' W 123°52'0 0.0
2018-Feb-12 02:28N 46°11' W 123°52'0 0.0
2018-Feb-12 01:58N 46°11' W 123°52'0 0.0
2018-Feb-12 01:28N 46°11' W 123°52'0 0.0
2018-Feb-12 00:58N 46°11' W 123°52'0 0.0
2018-Feb-12 00:28N 46°11' W 123°52'0 0.0
2018-Feb-11 23:58N 46°11' W 123°52'0 0.0
2018-Feb-11 23:28N 46°11' W 123°52'0 0.0
2018-Feb-11 22:58N 46°11' W 123°52'0 0.0
2018-Feb-11 22:28N 46°11' W 123°52'0 0.0
2018-Feb-11 21:58N 46°11' W 123°52'0 0.0
2018-Feb-11 21:25N 46°11' W 123°52'0 0.0
2018-Feb-11 20:58N 46°11' W 123°52'0 0.0
2018-Feb-11 19:58N 46°11' W 123°52'0 0.0
2018-Feb-11 19:13N 46°11' W 123°52'0 0.0
2018-Feb-11 18:55N 46°11' W 123°52'0 0.0
2018-Feb-11 18:28N 46°11' W 123°52'0 0.0
2018-Feb-11 17:58N 46°11' W 123°52'0 0.0
2018-Feb-11 17:28N 46°11' W 123°52'0 0.0
2018-Feb-11 16:58N 46°11' W 123°52'0 0.0
2018-Feb-11 16:28N 46°11' W 123°52'0 0.0
2018-Feb-11 15:55N 46°11' W 123°52'0 0.0
2018-Feb-11 15:28N 46°11' W 123°52'0 0.0
2018-Feb-11 14:52N 46°11' W 123°52'0 0.0
2018-Feb-11 14:28N 46°11' W 123°52'0 0.0
2018-Feb-11 13:58N 46°11' W 123°52'0 0.0
2018-Feb-11 13:28N 46°11' W 123°52'0 0.0
2018-Feb-11 12:58N 46°11' W 123°52'0 0.0
2018-Feb-11 12:28N 46°11' W 123°52'0 0.0
2018-Feb-11 11:52N 46°11' W 123°52'0 0.0
2018-Feb-11 11:25N 46°11' W 123°52'0 0.0
2018-Feb-11 10:58N 46°11' W 123°52'0 0.0
2018-Feb-11 10:25N 46°11' W 123°52'0 0.0
2018-Feb-11 09:58N 46°11' W 123°52'0 0.0
2018-Feb-11 09:28N 46°11' W 123°52'0 0.0
2018-Feb-11 08:58N 46°11' W 123°52'0 0.0
2018-Feb-11 08:28N 46°11' W 123°52'0 0.0
2018-Feb-11 07:58N 46°11' W 123°52'0 0.0
2018-Feb-11 07:28N 46°11' W 123°52'0 0.0
2018-Feb-11 06:58N 46°11' W 123°52'0 0.0
2018-Feb-11 06:28N 46°11' W 123°52'0 0.0
2018-Feb-11 05:49N 46°11' W 123°52'0 0.0
2018-Feb-11 05:28N 46°11' W 123°52'0 0.0
2018-Feb-11 04:58N 46°11' W 123°52'0 0.0
2018-Feb-11 04:28N 46°11' W 123°52'0 0.0
2018-Feb-11 03:58N 46°11' W 123°52'0 0.0
2018-Feb-11 03:16N 46°11' W 123°52'0 0.0
2018-Feb-11 02:58N 46°11' W 123°52'0 0.0
2018-Feb-11 02:16N 46°11' W 123°52'0 0.0
2018-Feb-11 01:58N 46°11' W 123°52'0 0.0
2018-Feb-11 01:28N 46°11' W 123°52'0 0.0
2018-Feb-11 00:58N 46°11' W 123°52'0 0.0
2018-Feb-11 00:22N 46°11' W 123°52'0 0.0
2018-Feb-10 23:58N 46°11' W 123°52'0 0.0
2018-Feb-10 23:28N 46°11' W 123°52'0 0.0
2018-Feb-10 22:58N 46°11' W 123°52'0 0.0
2018-Feb-10 22:25N 46°11' W 123°52'0 0.0
2018-Feb-10 21:58N 46°11' W 123°52'0 0.0
2018-Feb-10 21:28N 46°11' W 123°52'0 0.0
2018-Feb-10 20:58N 46°11' W 123°52'0 0.0
2018-Feb-10 20:28N 46°11' W 123°52'0 0.0
2018-Feb-10 19:58N 46°11' W 123°52'0 0.0
2018-Feb-10 19:28N 46°11' W 123°52'0 0.0
2018-Feb-10 18:58N 46°11' W 123°52'0 0.0
2018-Feb-10 18:28N 46°11' W 123°52'0 0.0
2018-Feb-10 17:55N 46°11' W 123°52'0 0.0
2018-Feb-10 17:28N 46°11' W 123°52'0 0.0
2018-Feb-10 16:58N 46°11' W 123°52'0 0.0
2018-Feb-10 16:28N 46°11' W 123°52'0 0.0
2018-Feb-10 15:58N 46°11' W 123°52'0 0.0
2018-Feb-10 15:28N 46°11' W 123°52'0 0.0
2018-Feb-10 14:58N 46°11' W 123°52'0 0.0
2018-Feb-10 14:25N 46°11' W 123°52'0 0.0
2018-Feb-10 13:58N 46°11' W 123°52'0 0.0
2018-Feb-10 13:28N 46°11' W 123°52'0 0.0
2018-Feb-10 12:58N 46°11' W 123°52'0 0.0
2018-Feb-10 12:28N 46°11' W 123°52'0 0.0
2018-Feb-10 11:58N 46°11' W 123°52'0 0.0
2018-Feb-10 11:28N 46°11' W 123°52'0 0.0
2018-Feb-10 10:58N 46°11' W 123°52'0 0.0
2018-Feb-10 10:28N 46°11' W 123°52'0 0.0
2018-Feb-10 09:58N 46°11' W 123°52'0 0.0
2018-Feb-10 09:28N 46°11' W 123°52'0 0.0
2018-Feb-10 08:58N 46°11' W 123°52'0 0.0
2018-Feb-10 08:28N 46°11' W 123°52'0 0.0
2018-Feb-10 07:58N 46°11' W 123°52'0 0.0
2018-Feb-10 07:25N 46°11' W 123°52'0 0.0
2018-Feb-10 06:49N 46°11' W 123°52'0 0.0
2018-Feb-10 06:13N 46°11' W 123°52'0 0.0
2018-Feb-10 05:58N 46°11' W 123°52'0 0.0
2018-Feb-10 05:28N 46°11' W 123°52'0 0.0
2018-Feb-10 04:58N 46°11' W 123°52'0 0.0
2018-Feb-10 04:28N 46°11' W 123°52'0 0.0
2018-Feb-10 03:46N 46°11' W 123°52'0 0.0
2018-Feb-10 03:28N 46°11' W 123°52'0 0.0
2018-Feb-10 02:55N 46°11' W 123°52'0 0.0
2018-Feb-10 02:28N 46°11' W 123°52'0 0.0
2018-Feb-10 01:58N 46°11' W 123°52'0 0.0
2018-Feb-10 01:28N 46°11' W 123°52'0 0.0
2018-Feb-10 00:58N 46°11' W 123°52'0 0.0
2018-Feb-10 00:28N 46°11' W 123°52'0 0.0
2018-Feb-09 23:58N 46°11' W 123°52'0 0.0
2018-Feb-09 23:28N 46°11' W 123°52'0 0.0
2018-Feb-09 22:43N 46°11' W 123°52'0 0.0
2018-Feb-08 01:25N 46°11' W 123°52'0 0.0
2018-Feb-08 00:58N 46°11' W 123°52'0 0.0
2018-Feb-08 00:28N 46°11' W 123°52'0 0.0
2018-Feb-07 23:55N 46°11' W 123°52'0 0.0
2018-Feb-07 23:28N 46°11' W 123°52'0 0.0
2018-Feb-07 22:58N 46°11' W 123°52'0 0.0
2018-Feb-07 22:28N 46°11' W 123°52'0 0.0
2018-Feb-07 21:58N 46°11' W 123°52'0 0.0
2018-Feb-07 21:28N 46°11' W 123°52'0 0.0
2018-Feb-07 09:28N 46°11' W 123°52'0 0.0
2018-Feb-07 08:58N 46°11' W 123°52'0 0.0
2018-Feb-07 08:28N 46°11' W 123°52'0 0.0
2018-Feb-07 07:58N 46°11' W 123°52'0 0.0
2018-Feb-07 07:28N 46°11' W 123°52'0 0.0
2018-Feb-07 06:58N 46°11' W 123°52'0 0.0
2018-Feb-07 06:28N 46°11' W 123°52'0 0.0
2018-Feb-07 05:58N 46°11' W 123°52'0 0.0
2018-Feb-07 05:25N 46°11' W 123°52'0 0.0
2018-Feb-07 04:58N 46°11' W 123°52'0 0.0
2018-Feb-07 04:28N 46°11' W 123°52'0 0.0
2018-Feb-07 03:58N 46°11' W 123°52'0 0.0
2018-Feb-07 03:28N 46°11' W 123°52'0 0.0
2018-Feb-07 02:58N 46°11' W 123°52'0 0.0
2018-Feb-07 02:28N 46°11' W 123°52'0 0.0
2018-Feb-07 01:28N 46°11' W 123°52'0 0.0
2018-Feb-07 00:49N 46°11' W 123°52'0 0.0
2018-Feb-07 00:25N 46°11' W 123°52'0 0.0
2018-Feb-06 23:58N 46°11' W 123°52'0 0.0
2018-Feb-06 23:28N 46°11' W 123°52'0 0.0
2018-Feb-06 22:58N 46°11' W 123°52'0 0.0
2018-Feb-06 22:28N 46°11' W 123°52'0 0.0
2018-Feb-06 21:55N 46°11' W 123°52'0 0.0
2018-Feb-06 21:28N 46°11' W 123°52'0 0.0
2018-Feb-06 20:58N 46°11' W 123°52'0 0.0
2018-Feb-06 20:28N 46°11' W 123°52'0 0.0
2018-Feb-06 19:58N 46°11' W 123°52'0 0.0
2018-Feb-06 19:07N 46°11' W 123°52'0 0.0
2018-Feb-06 18:58N 46°11' W 123°52'0 0.0
2018-Feb-06 18:28N 46°11' W 123°52'0 0.0
2018-Feb-06 17:34N 46°11' W 123°52'0 0.1
2018-Feb-06 17:28N 46°11' W 123°52'0 0.0
2018-Feb-06 16:49N 46°11' W 123°52'0 0.0
2018-Feb-06 16:28N 46°11' W 123°52'0 0.0
2018-Feb-06 15:58N 46°11' W 123°52'0 0.0
2018-Feb-06 15:28N 46°11' W 123°52'0 0.0
2018-Feb-06 14:58N 46°11' W 123°52'0 0.0
2018-Feb-06 14:28N 46°11' W 123°52'0 0.0
2018-Feb-06 13:58N 46°11' W 123°52'0 0.0
2018-Feb-06 13:28N 46°11' W 123°52'0 0.0
2018-Feb-06 12:58N 46°11' W 123°52'0 0.0
2018-Feb-06 12:28N 46°11' W 123°52'0 0.0
2018-Feb-06 11:58N 46°11' W 123°52'0 0.0
2018-Feb-06 11:13N 46°11' W 123°52'0 0.0
2018-Feb-06 10:58N 46°11' W 123°52'0 0.0
2018-Feb-06 10:28N 46°11' W 123°52'0 0.0
2018-Feb-06 09:58N 46°11' W 123°52'0 0.0
2018-Feb-06 09:28N 46°11' W 123°52'0 0.0
2018-Feb-06 08:58N 46°11' W 123°52'0 0.0
2018-Feb-06 08:19N 46°11' W 123°52'0 0.0
2018-Feb-06 07:58N 46°11' W 123°52'0 0.0
2018-Feb-06 07:28N 46°11' W 123°52'0 0.0
2018-Feb-06 06:58N 46°11' W 123°52'0 0.0
2018-Feb-06 06:28N 46°11' W 123°52'0 0.0
2018-Feb-06 05:43N 46°11' W 123°52'0 0.0
2018-Feb-06 05:28N 46°11' W 123°52'0 0.0
2018-Feb-06 04:58N 46°11' W 123°52'0 0.0
2018-Feb-06 04:28N 46°11' W 123°52'0 0.0
2018-Feb-06 03:58N 46°11' W 123°52'0 0.0
2018-Feb-06 03:28N 46°11' W 123°52'0 0.0
2018-Feb-06 02:58N 46°11' W 123°52'0 0.0
2018-Feb-06 02:28N 46°11' W 123°52'0 0.0
2018-Feb-06 01:58N 46°11' W 123°52'0 0.0
2018-Feb-06 01:28N 46°11' W 123°52'0 0.0
2018-Feb-06 00:55N 46°11' W 123°52'0 0.0
2018-Feb-06 00:28N 46°11' W 123°52'0 0.0
2018-Feb-05 23:58N 46°11' W 123°52'0 0.0
2018-Feb-05 23:28N 46°11' W 123°52'0 0.0
2018-Feb-05 22:58N 46°11' W 123°52'0 0.0
2018-Feb-05 22:28N 46°11' W 123°52'0 0.0
2018-Feb-05 21:58N 46°11' W 123°52'0 0.0
2018-Feb-05 21:25N 46°11' W 123°52'0 0.0
2018-Feb-05 20:49N 46°11' W 123°52'0 0.0
2018-Feb-05 20:28N 46°11' W 123°52'0 0.0
2018-Feb-05 19:58N 46°11' W 123°52'0 0.0
2018-Feb-05 19:28N 46°11' W 123°52'0 0.0
2018-Feb-05 18:58N 46°11' W 123°52'0 0.0
2018-Feb-05 18:28N 46°11' W 123°52'0 0.0
2018-Feb-05 17:55N 46°11' W 123°52'0 0.0
2018-Feb-05 17:28N 46°11' W 123°52'0 0.0
2018-Feb-05 16:58N 46°11' W 123°52'0 0.0
2018-Feb-05 16:25N 46°11' W 123°52'0 0.0
2018-Feb-05 15:58N 46°11' W 123°52'0 0.0
2018-Feb-05 15:28N 46°11' W 123°52'0 0.0
2018-Feb-05 14:58N 46°11' W 123°52'0 0.0
2018-Feb-05 14:25N 46°11' W 123°52'0 0.0
2018-Feb-05 13:58N 46°11' W 123°52'0 0.0
2018-Feb-05 13:16N 46°11' W 123°52'0 0.0
2018-Feb-05 12:55N 46°11' W 123°52'0 0.0
2018-Feb-05 12:28N 46°11' W 123°52'0 0.0
2018-Feb-05 11:55N 46°11' W 123°52'0 0.0
2018-Feb-05 11:28N 46°11' W 123°52'0 0.0
2018-Feb-05 10:58N 46°11' W 123°52'0 0.0
2018-Feb-05 10:28N 46°11' W 123°52'0 0.0
2018-Feb-05 09:58N 46°11' W 123°52'0 0.0
2018-Feb-05 09:28N 46°11' W 123°52'0 0.0
2018-Feb-05 08:58N 46°11' W 123°52'0 0.0
2018-Feb-05 08:28N 46°11' W 123°52'0 0.0
2018-Feb-05 07:58N 46°11' W 123°52'0 0.0
2018-Feb-05 07:28N 46°11' W 123°52'0 0.0
2018-Feb-05 06:58N 46°11' W 123°52'0 0.0
2018-Feb-05 06:28N 46°11' W 123°52'0 0.0
2018-Feb-05 05:28N 46°11' W 123°52'0 0.0
2018-Feb-05 04:58N 46°11' W 123°52'0 0.0
2018-Feb-05 04:28N 46°11' W 123°52'0 0.0
2018-Feb-05 03:58N 46°11' W 123°52'0 0.0
2018-Feb-05 03:28N 46°11' W 123°52'0 0.0
2018-Feb-05 02:55N 46°11' W 123°52'0 0.0
2018-Feb-05 02:28N 46°11' W 123°52'0 0.0
2018-Feb-05 01:55N 46°11' W 123°52'0 0.0
2018-Feb-05 01:28N 46°11' W 123°52'0 0.0
2018-Feb-05 00:58N 46°11' W 123°52'0 0.0
2018-Feb-05 00:28N 46°11' W 123°52'0 0.0
2018-Feb-04 23:58N 46°11' W 123°52'0 0.0
2018-Feb-04 23:28N 46°11' W 123°52'0 0.0
2018-Feb-04 22:58N 46°11' W 123°52'0 0.0
2018-Feb-04 22:28N 46°11' W 123°52'0 0.0
2018-Feb-04 21:13N 46°11' W 123°52'0 0.0
2018-Feb-04 20:58N 46°11' W 123°52'0 0.0
2018-Feb-04 19:56N 46°11' W 123°52'0 0.5
2018-Feb-04 19:30N 46°12' W 123°52'2 3.8
2018-Feb-04 19:00N 46°12' W 123°49'1 1.5
2018-Feb-04 18:27N 46°12' W 123°48'0 0.1
2018-Feb-04 18:00N 46°12' W 123°48'0 0.0
2018-Feb-04 17:30N 46°12' W 123°48'0 0.0
2018-Feb-04 15:30N 46°12' W 123°48'0 0.0
2018-Feb-04 15:00N 46°12' W 123°48'0 0.0
2018-Feb-04 14:30N 46°12' W 123°48'0 0.1
2018-Feb-04 14:00N 46°12' W 123°48'0 0.3
2018-Feb-04 13:30N 46°12' W 123°48'0 0.2
2018-Feb-04 13:00N 46°12' W 123°48'0 0.0
2018-Feb-04 12:27N 46°12' W 123°48'0 0.0
2018-Feb-04 12:00N 46°12' W 123°48'0 0.1
2018-Feb-04 11:30N 46°12' W 123°48'0 0.0
2018-Feb-04 10:00N 46°12' W 123°48'0 0.0
2018-Feb-04 08:54N 46°12' W 123°48'0 0.0
2018-Feb-04 08:30N 46°12' W 123°48'0 0.0
2018-Feb-04 08:00N 46°12' W 123°48'0 0.3
2018-Feb-04 07:30N 46°12' W 123°48'0 0.3
2018-Feb-04 07:00N 46°12' W 123°48'0 0.0
2018-Feb-04 06:30N 46°12' W 123°48'0 0.1
2018-Feb-04 06:00N 46°12' W 123°48'0 0.0
2018-Feb-04 05:30N 46°12' W 123°48'0 0.0
2018-Feb-04 05:00N 46°12' W 123°48'0 0.0
2018-Feb-04 04:30N 46°12' W 123°48'0 0.0
2018-Feb-04 04:00N 46°12' W 123°48'0 0.0
2018-Feb-04 03:24N 46°12' W 123°48'0 0.1
2018-Feb-04 03:00N 46°12' W 123°48'0 0.0
2018-Feb-04 02:30N 46°12' W 123°48'0 0.0
2018-Feb-04 01:57N 46°12' W 123°48'0 0.0
2018-Feb-04 01:30N 46°12' W 123°48'0 0.0
2018-Feb-04 01:00N 46°12' W 123°48'0 0.2
2018-Feb-04 00:30N 46°12' W 123°48'0 0.2
2018-Feb-03 23:57N 46°12' W 123°48'0 0.2
2018-Feb-03 23:30N 46°12' W 123°48'0 0.1
2018-Feb-03 23:00N 46°12' W 123°48'0 0.0
2018-Feb-03 22:15N 46°12' W 123°48'0 0.0
2018-Feb-03 21:54N 46°12' W 123°48'0 0.0
2018-Feb-03 21:30N 46°12' W 123°48'0 0.0
2018-Feb-03 21:00N 46°12' W 123°48'0 0.0
2018-Feb-03 20:30N 46°12' W 123°48'0 0.0
2018-Feb-03 20:00N 46°12' W 123°48'0 0.1
2018-Feb-03 18:30N 46°12' W 123°48'0 0.1
2018-Feb-03 18:00N 46°12' W 123°48'0 0.0
2018-Feb-03 17:30N 46°12' W 123°48'0 0.0
2018-Feb-03 17:00N 46°12' W 123°48'0 0.0
2018-Feb-03 16:00N 46°12' W 123°48'0 0.0
2018-Feb-03 15:30N 46°12' W 123°48'0 0.0
2018-Feb-03 15:00N 46°12' W 123°48'0 0.0
2018-Feb-03 14:30N 46°12' W 123°48'0 0.0
2018-Feb-03 14:00N 46°12' W 123°48'0 0.1
2018-Feb-03 13:30N 46°12' W 123°48'0 0.4
2018-Feb-03 13:00N 46°12' W 123°48'0 0.0
2018-Feb-03 12:30N 46°12' W 123°48'0 0.1
2018-Feb-03 12:00N 46°12' W 123°48'0 0.0
2018-Feb-03 11:30N 46°12' W 123°48'0 0.0
2018-Feb-03 11:00N 46°12' W 123°48'0 0.0
2018-Feb-03 10:30N 46°12' W 123°48'0 0.0
2018-Feb-03 09:57N 46°12' W 123°48'0 0.0
2018-Feb-03 09:30N 46°12' W 123°48'0 0.0
2018-Feb-03 09:00N 46°12' W 123°48'0 0.0
2018-Feb-03 08:27N 46°12' W 123°48'0 0.0
2018-Feb-03 08:00N 46°12' W 123°48'0 0.1
2018-Feb-03 06:30N 46°12' W 123°48'0 0.1
2018-Feb-03 06:00N 46°12' W 123°48'0 0.0
2018-Feb-03 05:30N 46°12' W 123°48'0 0.0
2018-Feb-03 05:00N 46°12' W 123°48'0 0.0
2018-Feb-03 03:39N 46°12' W 123°48'0 0.1
2018-Feb-03 03:30N 46°12' W 123°48'0 0.0
2018-Feb-03 02:00N 46°12' W 123°48'0 0.1
2018-Feb-03 01:18N 46°12' W 123°48'0 0.0
2018-Feb-03 01:00N 46°12' W 123°48'0 0.0
2018-Feb-03 00:30N 46°12' W 123°48'0 0.1
2018-Feb-03 00:00N 46°12' W 123°48'0 0.4
2018-Feb-02 23:30N 46°12' W 123°48'0 0.2
2018-Feb-02 23:00N 46°12' W 123°48'0 0.0
2018-Feb-02 22:30N 46°12' W 123°48'0 0.1
2018-Feb-02 22:00N 46°12' W 123°48'0 0.0
2018-Feb-02 21:30N 46°12' W 123°48'0 0.1
2018-Feb-02 20:54N 46°12' W 123°48'0 0.1
2018-Feb-02 20:30N 46°12' W 123°48'0 0.0
2018-Feb-02 19:48N 46°12' W 123°48'0 0.0
2018-Feb-02 19:00N 46°12' W 123°48'0 0.0
2018-Feb-02 18:30N 46°12' W 123°48'0 0.1
2018-Feb-02 18:00N 46°12' W 123°48'0 0.4
2018-Feb-02 17:30N 46°12' W 123°48'0 0.1
2018-Feb-02 16:54N 46°12' W 123°48'0 0.2
2018-Feb-02 16:31N 46°12' W 123°48'6 5.5
2018-Feb-02 15:30N 46°12' W 123°56'  
Track history (hours):
 
Tides and Currents Weather Stations Pressure Air Temp Water Temp Dewpoint Dewpoint Depression Visibility Wind Speed Wind Dir Waves Ship Positions

White Coral

Last reported at 2018-Feb-12 14:54 UTC. Time now 2018-Feb-21 19:21 UTC.
Position N 46°11' W 125°29'.
Warning: this ship's position is 9 days out of date.

Length 176 m; draft 10.2 m.

Type: Cargo ship. MMSI: 353769000.

Date/timePositionNaut miles runAvg speedWind from/ knotsBaromVisibWave heightAir tempDewpointWater temp
2018-Feb-12 14:54N 46°11' W 125°29'4 9.9
2018-Feb-12 14:30N 46°11' W 125°23'5 9.7
2018-Feb-12 14:00N 46°11' W 125°16'510.1
2018-Feb-12 13:30N 46°11' W 125°09'6 9.9
2018-Feb-12 12:57N 46°11' W 125°01'410.1
2018-Feb-12 12:30N 46°11' W 124°54'510.0
2018-Feb-12 12:00N 46°11' W 124°47'5 9.8
2018-Feb-12 11:30N 46°11' W 124°40'510.0
2018-Feb-12 11:00N 46°11' W 124°33'510.1
2018-Feb-12 10:30N 46°11' W 124°26'510.6
2018-Feb-12 10:00N 46°11' W 124°18'611.5
2018-Feb-12 09:30N 46°12' W 124°10'612.1
2018-Feb-12 09:00N 46°16' W 124°02'612.2
2018-Feb-12 08:30N 46°12' W 123°56'3 5.3
2018-Feb-12 08:01N 46°11' W 123°52'0 0.3
2018-Feb-12 07:25N 46°11' W 123°52'0 0.0
2018-Feb-12 06:58N 46°11' W 123°52'0 0.0
2018-Feb-12 06:28N 46°11' W 123°52'0 0.0
2018-Feb-12 05:46N 46°11' W 123°52'0 0.0
2018-Feb-12 05:28N 46°11' W 123°52'0 0.0
2018-Feb-12 04:58N 46°11' W 123°52'0 0.0
2018-Feb-12 04:28N 46°11' W 123°52'0 0.0
2018-Feb-12 03:58N 46°11' W 123°52'0 0.0
2018-Feb-12 03:19N 46°11' W 123°52'0 0.0
2018-Feb-12 02:58N 46°11' W 123°52'0 0.0
2018-Feb-12 02:28N 46°11' W 123°52'0 0.0
2018-Feb-12 01:58N 46°11' W 123°52'0 0.0
2018-Feb-12 01:28N 46°11' W 123°52'0 0.0
2018-Feb-12 00:58N 46°11' W 123°52'0 0.0
2018-Feb-12 00:28N 46°11' W 123°52'0 0.0
2018-Feb-11 23:58N 46°11' W 123°52'0 0.0
2018-Feb-11 23:28N 46°11' W 123°52'0 0.0
2018-Feb-11 22:58N 46°11' W 123°52'0 0.0
2018-Feb-11 22:28N 46°11' W 123°52'0 0.0
2018-Feb-11 21:58N 46°11' W 123°52'0 0.0
2018-Feb-11 21:25N 46°11' W 123°52'0 0.0
2018-Feb-11 20:58N 46°11' W 123°52'0 0.0
2018-Feb-11 19:58N 46°11' W 123°52'0 0.0
2018-Feb-11 19:13N 46°11' W 123°52'0 0.0
2018-Feb-11 18:55N 46°11' W 123°52'0 0.0
2018-Feb-11 18:28N 46°11' W 123°52'0 0.0
2018-Feb-11 17:58N 46°11' W 123°52'0 0.0
2018-Feb-11 17:28N 46°11' W 123°52'0 0.0
2018-Feb-11 16:58N 46°11' W 123°52'0 0.0
2018-Feb-11 16:28N 46°11' W 123°52'0 0.0
2018-Feb-11 15:55N 46°11' W 123°52'0 0.0
2018-Feb-11 15:28N 46°11' W 123°52'0 0.0
2018-Feb-11 14:52N 46°11' W 123°52'0 0.0
2018-Feb-11 14:28N 46°11' W 123°52'0 0.0
2018-Feb-11 13:58N 46°11' W 123°52'0 0.0
2018-Feb-11 13:28N 46°11' W 123°52'0 0.0
2018-Feb-11 12:58N 46°11' W 123°52'0 0.0
2018-Feb-11 12:28N 46°11' W 123°52'0 0.0
2018-Feb-11 11:52N 46°11' W 123°52'0 0.0
2018-Feb-11 11:25N 46°11' W 123°52'0 0.0
2018-Feb-11 10:58N 46°11' W 123°52'0 0.0
2018-Feb-11 10:25N 46°11' W 123°52'0 0.0
2018-Feb-11 09:58N 46°11' W 123°52'0 0.0
2018-Feb-11 09:28N 46°11' W 123°52'0 0.0
2018-Feb-11 08:58N 46°11' W 123°52'0 0.0
2018-Feb-11 08:28N 46°11' W 123°52'0 0.0
2018-Feb-11 07:58N 46°11' W 123°52'0 0.0
2018-Feb-11 07:28N 46°11' W 123°52'0 0.0
2018-Feb-11 06:58N 46°11' W 123°52'0 0.0
2018-Feb-11 06:28N 46°11' W 123°52'0 0.0
2018-Feb-11 05:49N 46°11' W 123°52'0 0.0
2018-Feb-11 05:28N 46°11' W 123°52'0 0.0
2018-Feb-11 04:58N 46°11' W 123°52'0 0.0
2018-Feb-11 04:28N 46°11' W 123°52'0 0.0
2018-Feb-11 03:58N 46°11' W 123°52'0 0.0
2018-Feb-11 03:16N 46°11' W 123°52'0 0.0
2018-Feb-11 02:58N 46°11' W 123°52'0 0.0
2018-Feb-11 02:16N 46°11' W 123°52'0 0.0
2018-Feb-11 01:58N 46°11' W 123°52'0 0.0
2018-Feb-11 01:28N 46°11' W 123°52'0 0.0
2018-Feb-11 00:58N 46°11' W 123°52'0 0.0
2018-Feb-11 00:22N 46°11' W 123°52'0 0.0
2018-Feb-10 23:58N 46°11' W 123°52'0 0.0
2018-Feb-10 23:28N 46°11' W 123°52'0 0.0
2018-Feb-10 22:58N 46°11' W 123°52'0 0.0
2018-Feb-10 22:25N 46°11' W 123°52'0 0.0
2018-Feb-10 21:58N 46°11' W 123°52'0 0.0
2018-Feb-10 21:28N 46°11' W 123°52'0 0.0
2018-Feb-10 20:58N 46°11' W 123°52'0 0.0
2018-Feb-10 20:28N 46°11' W 123°52'0 0.0
2018-Feb-10 19:58N 46°11' W 123°52'0 0.0
2018-Feb-10 19:28N 46°11' W 123°52'0 0.0
2018-Feb-10 18:58N 46°11' W 123°52'0 0.0
2018-Feb-10 18:28N 46°11' W 123°52'0 0.0
2018-Feb-10 17:55N 46°11' W 123°52'0 0.0
2018-Feb-10 17:28N 46°11' W 123°52'0 0.0
2018-Feb-10 16:58N 46°11' W 123°52'0 0.0
2018-Feb-10 16:28N 46°11' W 123°52'0 0.0
2018-Feb-10 15:58N 46°11' W 123°52'0 0.0
2018-Feb-10 15:28N 46°11' W 123°52'0 0.0
2018-Feb-10 14:58N 46°11' W 123°52'0 0.0
2018-Feb-10 14:25N 46°11' W 123°52'0 0.0
2018-Feb-10 13:58N 46°11' W 123°52'0 0.0
2018-Feb-10 13:28N 46°11' W 123°52'0 0.0
2018-Feb-10 12:58N 46°11' W 123°52'0 0.0
2018-Feb-10 12:28N 46°11' W 123°52'0 0.0
2018-Feb-10 11:58N 46°11' W 123°52'0 0.0
2018-Feb-10 11:28N 46°11' W 123°52'0 0.0
2018-Feb-10 10:58N 46°11' W 123°52'0 0.0
2018-Feb-10 10:28N 46°11' W 123°52'0 0.0
2018-Feb-10 09:58N 46°11' W 123°52'0 0.0
2018-Feb-10 09:28N 46°11' W 123°52'0 0.0
2018-Feb-10 08:58N 46°11' W 123°52'0 0.0
2018-Feb-10 08:28N 46°11' W 123°52'0 0.0
2018-Feb-10 07:58N 46°11' W 123°52'0 0.0
2018-Feb-10 07:25N 46°11' W 123°52'0 0.0
2018-Feb-10 06:49N 46°11' W 123°52'0 0.0
2018-Feb-10 06:13N 46°11' W 123°52'0 0.0
2018-Feb-10 05:58N 46°11' W 123°52'0 0.0
2018-Feb-10 05:28N 46°11' W 123°52'0 0.0
2018-Feb-10 04:58N 46°11' W 123°52'0 0.0
2018-Feb-10 04:28N 46°11' W 123°52'0 0.0
2018-Feb-10 03:46N 46°11' W 123°52'0 0.0
2018-Feb-10 03:28N 46°11' W 123°52'0 0.0
2018-Feb-10 02:55N 46°11' W 123°52'0 0.0
2018-Feb-10 02:28N 46°11' W 123°52'0 0.0
2018-Feb-10 01:58N 46°11' W 123°52'0 0.0
2018-Feb-10 01:28N 46°11' W 123°52'0 0.0
2018-Feb-10 00:58N 46°11' W 123°52'0 0.0
2018-Feb-10 00:28N 46°11' W 123°52'0 0.0
2018-Feb-09 23:58N 46°11' W 123°52'0 0.0
2018-Feb-09 23:28N 46°11' W 123°52'0 0.0
2018-Feb-09 22:43N 46°11' W 123°52'0 0.0
2018-Feb-08 01:25N 46°11' W 123°52'0 0.0
2018-Feb-08 00:58N 46°11' W 123°52'0 0.0
2018-Feb-08 00:28N 46°11' W 123°52'0 0.0
2018-Feb-07 23:55N 46°11' W 123°52'0 0.0
2018-Feb-07 23:28N 46°11' W 123°52'0 0.0
2018-Feb-07 22:58N 46°11' W 123°52'0 0.0
2018-Feb-07 22:28N 46°11' W 123°52'0 0.0
2018-Feb-07 21:58N 46°11' W 123°52'0 0.0
2018-Feb-07 21:28N 46°11' W 123°52'0 0.0
2018-Feb-07 09:28N 46°11' W 123°52'0 0.0
2018-Feb-07 08:58N 46°11' W 123°52'0 0.0
2018-Feb-07 08:28N 46°11' W 123°52'0 0.0
2018-Feb-07 07:58N 46°11' W 123°52'0 0.0
2018-Feb-07 07:28N 46°11' W 123°52'0 0.0
2018-Feb-07 06:58N 46°11' W 123°52'0 0.0
2018-Feb-07 06:28N 46°11' W 123°52'0 0.0
2018-Feb-07 05:58N 46°11' W 123°52'0 0.0
2018-Feb-07 05:25N 46°11' W 123°52'0 0.0
2018-Feb-07 04:58N 46°11' W 123°52'0 0.0
2018-Feb-07 04:28N 46°11' W 123°52'0 0.0
2018-Feb-07 03:58N 46°11' W 123°52'0 0.0
2018-Feb-07 03:28N 46°11' W 123°52'0 0.0
2018-Feb-07 02:58N 46°11' W 123°52'0 0.0
2018-Feb-07 02:28N 46°11' W 123°52'0 0.0
2018-Feb-07 01:28N 46°11' W 123°52'0 0.0
2018-Feb-07 00:49N 46°11' W 123°52'0 0.0
2018-Feb-07 00:25N 46°11' W 123°52'0 0.0
2018-Feb-06 23:58N 46°11' W 123°52'0 0.0
2018-Feb-06 23:28N 46°11' W 123°52'0 0.0
2018-Feb-06 22:58N 46°11' W 123°52'0 0.0
2018-Feb-06 22:28N 46°11' W 123°52'0 0.0
2018-Feb-06 21:55N 46°11' W 123°52'0 0.0
2018-Feb-06 21:28N 46°11' W 123°52'0 0.0
2018-Feb-06 20:58N 46°11' W 123°52'0 0.0
2018-Feb-06 20:28N 46°11' W 123°52'0 0.0
2018-Feb-06 19:58N 46°11' W 123°52'0 0.0
2018-Feb-06 19:07N 46°11' W 123°52'0 0.0
2018-Feb-06 18:58N 46°11' W 123°52'0 0.0
2018-Feb-06 18:28N 46°11' W 123°52'0 0.0
2018-Feb-06 17:34N 46°11' W 123°52'0 0.1
2018-Feb-06 17:28N 46°11' W 123°52'0 0.0
2018-Feb-06 16:49N 46°11' W 123°52'0 0.0
2018-Feb-06 16:28N 46°11' W 123°52'0 0.0
2018-Feb-06 15:58N 46°11' W 123°52'0 0.0
2018-Feb-06 15:28N 46°11' W 123°52'0 0.0
2018-Feb-06 14:58N 46°11' W 123°52'0 0.0
2018-Feb-06 14:28N 46°11' W 123°52'0 0.0
2018-Feb-06 13:58N 46°11' W 123°52'0 0.0
2018-Feb-06 13:28N 46°11' W 123°52'0 0.0
2018-Feb-06 12:58N 46°11' W 123°52'0 0.0
2018-Feb-06 12:28N 46°11' W 123°52'0 0.0
2018-Feb-06 11:58N 46°11' W 123°52'0 0.0
2018-Feb-06 11:13N 46°11' W 123°52'0 0.0
2018-Feb-06 10:58N 46°11' W 123°52'0 0.0
2018-Feb-06 10:28N 46°11' W 123°52'0 0.0
2018-Feb-06 09:58N 46°11' W 123°52'0 0.0
2018-Feb-06 09:28N 46°11' W 123°52'0 0.0
2018-Feb-06 08:58N 46°11' W 123°52'0 0.0
2018-Feb-06 08:19N 46°11' W 123°52'0 0.0
2018-Feb-06 07:58N 46°11' W 123°52'0 0.0
2018-Feb-06 07:28N 46°11' W 123°52'0 0.0
2018-Feb-06 06:58N 46°11' W 123°52'0 0.0
2018-Feb-06 06:28N 46°11' W 123°52'0 0.0
2018-Feb-06 05:43N 46°11' W 123°52'0 0.0
2018-Feb-06 05:28N 46°11' W 123°52'0 0.0
2018-Feb-06 04:58N 46°11' W 123°52'0 0.0
2018-Feb-06 04:28N 46°11' W 123°52'0 0.0
2018-Feb-06 03:58N 46°11' W 123°52'0 0.0
2018-Feb-06 03:28N 46°11' W 123°52'0 0.0
2018-Feb-06 02:58N 46°11' W 123°52'0 0.0
2018-Feb-06 02:28N 46°11' W 123°52'0 0.0
2018-Feb-06 01:58N 46°11' W 123°52'0 0.0
2018-Feb-06 01:28N 46°11' W 123°52'0 0.0
2018-Feb-06 00:55N 46°11' W 123°52'0 0.0
2018-Feb-06 00:28N 46°11' W 123°52'0 0.0
2018-Feb-05 23:58N 46°11' W 123°52'0 0.0
2018-Feb-05 23:28N 46°11' W 123°52'0 0.0
2018-Feb-05 22:58N 46°11' W 123°52'0 0.0
2018-Feb-05 22:28N 46°11' W 123°52'0 0.0
2018-Feb-05 21:58N 46°11' W 123°52'0 0.0
2018-Feb-05 21:25N 46°11' W 123°52'0 0.0
2018-Feb-05 20:49N 46°11' W 123°52'0 0.0
2018-Feb-05 20:28N 46°11' W 123°52'0 0.0
2018-Feb-05 19:58N 46°11' W 123°52'0 0.0
2018-Feb-05 19:28N 46°11' W 123°52'0 0.0
2018-Feb-05 18:58N 46°11' W 123°52'0 0.0
2018-Feb-05 18:28N 46°11' W 123°52'0 0.0
2018-Feb-05 17:55N 46°11' W 123°52'0 0.0
2018-Feb-05 17:28N 46°11' W 123°52'0 0.0
2018-Feb-05 16:58N 46°11' W 123°52'0 0.0
2018-Feb-05 16:25N 46°11' W 123°52'0 0.0
2018-Feb-05 15:58N 46°11' W 123°52'0 0.0
2018-Feb-05 15:28N 46°11' W 123°52'0 0.0
2018-Feb-05 14:58N 46°11' W 123°52'0 0.0
2018-Feb-05 14:25N 46°11' W 123°52'0 0.0
2018-Feb-05 13:58N 46°11' W 123°52'0 0.0
2018-Feb-05 13:16N 46°11' W 123°52'0 0.0
2018-Feb-05 12:55N 46°11' W 123°52'0 0.0
2018-Feb-05 12:28N 46°11' W 123°52'0 0.0
2018-Feb-05 11:55N 46°11' W 123°52'0 0.0
2018-Feb-05 11:28N 46°11' W 123°52'0 0.0
2018-Feb-05 10:58N 46°11' W 123°52'0 0.0
2018-Feb-05 10:28N 46°11' W 123°52'0 0.0
2018-Feb-05 09:58N 46°11' W 123°52'0 0.0
2018-Feb-05 09:28N 46°11' W 123°52'0 0.0
2018-Feb-05 08:58N 46°11' W 123°52'0 0.0
2018-Feb-05 08:28N 46°11' W 123°52'0 0.0
2018-Feb-05 07:58N 46°11' W 123°52'0 0.0
2018-Feb-05 07:28N 46°11' W 123°52'0 0.0
2018-Feb-05 06:58N 46°11' W 123°52'0 0.0
2018-Feb-05 06:28N 46°11' W 123°52'0 0.0
2018-Feb-05 05:28N 46°11' W 123°52'0 0.0
2018-Feb-05 04:58N 46°11' W 123°52'0 0.0
2018-Feb-05 04:28N 46°11' W 123°52'0 0.0
2018-Feb-05 03:58N 46°11' W 123°52'0 0.0
2018-Feb-05 03:28N 46°11' W 123°52'0 0.0
2018-Feb-05 02:55N 46°11' W 123°52'0 0.0
2018-Feb-05 02:28N 46°11' W 123°52'0 0.0
2018-Feb-05 01:55N 46°11' W 123°52'0 0.0
2018-Feb-05 01:28N 46°11' W 123°52'0 0.0
2018-Feb-05 00:58N 46°11' W 123°52'0 0.0
2018-Feb-05 00:28N 46°11' W 123°52'0 0.0
2018-Feb-04 23:58N 46°11' W 123°52'0 0.0
2018-Feb-04 23:28N 46°11' W 123°52'0 0.0
2018-Feb-04 22:58N 46°11' W 123°52'0 0.0
2018-Feb-04 22:28N 46°11' W 123°52'0 0.0
2018-Feb-04 21:13N 46°11' W 123°52'0 0.0
2018-Feb-04 20:58N 46°11' W 123°52'0 0.0
2018-Feb-04 19:56N 46°11' W 123°52'0 0.5
2018-Feb-04 19:30N 46°12' W 123°52'2 3.8
2018-Feb-04 19:00N 46°12' W 123°49'1 1.5
2018-Feb-04 18:27N 46°12' W 123°48'0 0.1
2018-Feb-04 18:00N 46°12' W 123°48'0 0.0
2018-Feb-04 17:30N 46°12' W 123°48'0 0.0
2018-Feb-04 15:30N 46°12' W 123°48'0 0.0
2018-Feb-04 15:00N 46°12' W 123°48'0 0.0
2018-Feb-04 14:30N 46°12' W 123°48'0 0.1
2018-Feb-04 14:00N 46°12' W 123°48'0 0.3
2018-Feb-04 13:30N 46°12' W 123°48'0 0.2
2018-Feb-04 13:00N 46°12' W 123°48'0 0.0
2018-Feb-04 12:27N 46°12' W 123°48'0 0.0
2018-Feb-04 12:00N 46°12' W 123°48'0 0.1
2018-Feb-04 11:30N 46°12' W 123°48'0 0.0
2018-Feb-04 10:00N 46°12' W 123°48'0 0.0
2018-Feb-04 08:54N 46°12' W 123°48'0 0.0
2018-Feb-04 08:30N 46°12' W 123°48'0 0.0
2018-Feb-04 08:00N 46°12' W 123°48'0 0.3
2018-Feb-04 07:30N 46°12' W 123°48'0 0.3
2018-Feb-04 07:00N 46°12' W 123°48'0 0.0
2018-Feb-04 06:30N 46°12' W 123°48'0 0.1
2018-Feb-04 06:00N 46°12' W 123°48'0 0.0
2018-Feb-04 05:30N 46°12' W 123°48'0 0.0
2018-Feb-04 05:00N 46°12' W 123°48'0 0.0
2018-Feb-04 04:30N 46°12' W 123°48'0 0.0
2018-Feb-04 04:00N 46°12' W 123°48'0 0.0
2018-Feb-04 03:24N 46°12' W 123°48'0 0.1
2018-Feb-04 03:00N 46°12' W 123°48'0 0.0
2018-Feb-04 02:30N 46°12' W 123°48'0 0.0
2018-Feb-04 01:57N 46°12' W 123°48'0 0.0
2018-Feb-04 01:30N 46°12' W 123°48'0 0.0
2018-Feb-04 01:00N 46°12' W 123°48'0 0.2
2018-Feb-04 00:30N 46°12' W 123°48'0 0.2
2018-Feb-03 23:57N 46°12' W 123°48'0 0.2
2018-Feb-03 23:30N 46°12' W 123°48'0 0.1
2018-Feb-03 23:00N 46°12' W 123°48'0 0.0
2018-Feb-03 22:15N 46°12' W 123°48'0 0.0
2018-Feb-03 21:54N 46°12' W 123°48'0 0.0
2018-Feb-03 21:30N 46°12' W 123°48'0 0.0
2018-Feb-03 21:00N 46°12' W 123°48'0 0.0
2018-Feb-03 20:30N 46°12' W 123°48'0 0.0
2018-Feb-03 20:00N 46°12' W 123°48'0 0.1
2018-Feb-03 18:30N 46°12' W 123°48'0 0.1
2018-Feb-03 18:00N 46°12' W 123°48'0 0.0
2018-Feb-03 17:30N 46°12' W 123°48'0 0.0
2018-Feb-03 17:00N 46°12' W 123°48'0 0.0
2018-Feb-03 16:00N 46°12' W 123°48'0 0.0
2018-Feb-03 15:30N 46°12' W 123°48'0 0.0
2018-Feb-03 15:00N 46°12' W 123°48'0 0.0
2018-Feb-03 14:30N 46°12' W 123°48'0 0.0
2018-Feb-03 14:00N 46°12' W 123°48'0 0.1
2018-Feb-03 13:30N 46°12' W 123°48'0 0.4
2018-Feb-03 13:00N 46°12' W 123°48'0 0.0
2018-Feb-03 12:30N 46°12' W 123°48'0 0.1
2018-Feb-03 12:00N 46°12' W 123°48'0 0.0
2018-Feb-03 11:30N 46°12' W 123°48'0 0.0
2018-Feb-03 11:00N 46°12' W 123°48'0 0.0
2018-Feb-03 10:30N 46°12' W 123°48'0 0.0
2018-Feb-03 09:57N 46°12' W 123°48'0 0.0
2018-Feb-03 09:30N 46°12' W 123°48'0 0.0
2018-Feb-03 09:00N 46°12' W 123°48'0 0.0
2018-Feb-03 08:27N 46°12' W 123°48'0 0.0
2018-Feb-03 08:00N 46°12' W 123°48'0 0.1
2018-Feb-03 06:30N 46°12' W 123°48'0 0.1
2018-Feb-03 06:00N 46°12' W 123°48'0 0.0
2018-Feb-03 05:30N 46°12' W 123°48'0 0.0
2018-Feb-03 05:00N 46°12' W 123°48'0 0.0
2018-Feb-03 03:39N 46°12' W 123°48'0 0.1
2018-Feb-03 03:30N 46°12' W 123°48'0 0.0
2018-Feb-03 02:00N 46°12' W 123°48'0 0.1
2018-Feb-03 01:18N 46°12' W 123°48'0 0.0
2018-Feb-03 01:00N 46°12' W 123°48'0 0.0
2018-Feb-03 00:30N 46°12' W 123°48'0 0.1
2018-Feb-03 00:00N 46°12' W 123°48'0 0.4
2018-Feb-02 23:30N 46°12' W 123°48'0 0.2
2018-Feb-02 23:00N 46°12' W 123°48'0 0.0
2018-Feb-02 22:30N 46°12' W 123°48'0 0.1
2018-Feb-02 22:00N 46°12' W 123°48'0 0.0
2018-Feb-02 21:30N 46°12' W 123°48'0 0.1
2018-Feb-02 20:54N 46°12' W 123°48'0 0.1
2018-Feb-02 20:30N 46°12' W 123°48'0 0.0
2018-Feb-02 19:48N 46°12' W 123°48'0 0.0
2018-Feb-02 19:00N 46°12' W 123°48'0 0.0
2018-Feb-02 18:30N 46°12' W 123°48'0 0.1
2018-Feb-02 18:00N 46°12' W 123°48'0 0.4
2018-Feb-02 17:30N 46°12' W 123°48'0 0.1
2018-Feb-02 16:54N 46°12' W 123°48'0 0.2
2018-Feb-02 16:31N 46°12' W 123°48'6 5.5
2018-Feb-02 15:30N 46°12' W 123°56'  

Dump ship's entire track history